Terminal Aerodrome Forecast
Issued by NWS

Home | Current Version | Previous Version | Text Only | Print | Product List | Glossary On
Versions: 1 2 3 4 5 6 7 8 9 10 11 12 13 14 15 16 17 18 19 20 21 22 23 24 25 26 27 28 29 30
000
FTUS43 KDLH 302339
TAFHIB
TAF
KHIB 302339Z 3100/3124 16004KT P6SM VCSH BKN070
     FM310200 10003KT P6SM BKN070
     FM310900 10010G17KT P6SM -RA VCTS SCT015CB BKN050
     FM311500 11011G17KT 6SM -RA BR VCTS OVC020CB
     FM312300 13010G15KT P6SM BKN025 OVC050=

USA.gov is the U.S. government's official web portal to all federal, state and local government web resources and services.